Savage Integrity — WDG5472 — position and weather

sailwx.info

Track history (hours):
 
Tides and Currents Weather Stations Pressure Air Temp Water Temp Dewpoint Dewpoint Depression Visibility Wind Speed Wind Dir Waves Ship Positions

Savage Integrity

Owner: Savage Inland Marine, Gibson, LA. More information available from US FCC via Universal Licensing System and Coast Guard Vessel Documentation Center.

Last reported at 2018-Jun-25 00:01 UTC. Time now 2018-Jun-25 00:13 UTC.
Position N 30°12' W 093°17'.

Length 25 m.

Type: Towing. MMSI: 367547030.

Date/timePositionNaut miles runAvg speedWind from/ knotsBaromVisibWave heightAir tempDewpointWater temp
2018-Jun-25 00:01N 30°12' W 093°17'2 4.8
2018-Jun-24 23:30N 30°14' W 093°15'1 1.8
2018-Jun-24 23:01N 30°15' W 093°14'2 3.4
2018-Jun-24 22:30N 30°15' W 093°12'2 3.5
2018-Jun-24 22:00N 30°15' W 093°14'1 1.4
2018-Jun-24 21:30N 30°14' W 093°15'1 1.1
2018-Jun-24 21:00N 30°14' W 093°15'2 4.3
2018-Jun-24 20:30N 30°12' W 093°16'4 8.4
2018-Jun-24 20:00N 30°09' W 093°20'510.3
2018-Jun-24 19:30N 30°04' W 093°21'1 1.2
2018-Jun-24 19:00N 30°04' W 093°21'0 0.4
2018-Jun-24 18:30N 30°04' W 093°21'1 2.0
2018-Jun-24 18:00N 30°04' W 093°20'0 0.5
2018-Jun-24 17:30N 30°04' W 093°21'1 2.5
2018-Jun-24 17:00N 30°04' W 093°22'3 6.1
2018-Jun-24 16:30N 30°04' W 093°25'3 6.9
2018-Jun-24 16:00N 30°04' W 093°29'3 6.4
2018-Jun-24 15:30N 30°04' W 093°33'3 6.6
2018-Jun-24 14:59N 30°04' W 093°37'3 6.9
2018-Jun-24 14:30N 30°03' W 093°41'3 6.6
2018-Jun-24 14:00N 30°02' W 093°44'3 6.5
2018-Jun-24 13:30N 29°60' W 093°47'4 7.4
2018-Jun-24 13:00N 29°58' W 093°51'3 5.6
2018-Jun-24 12:30N 29°59' W 093°54'1 1.7
2018-Jun-24 12:00N 29°60' W 093°55'0 0.0
2018-Jun-24 11:30N 29°60' W 093°55'0 0.0
2018-Jun-24 11:01N 29°60' W 093°55'0 0.0
2018-Jun-24 10:30N 29°60' W 093°55'0 0.0
2018-Jun-24 10:00N 29°60' W 093°55'0 0.0
2018-Jun-24 09:30N 29°60' W 093°55'0 0.0
2018-Jun-24 09:00N 29°60' W 093°55'0 0.0
2018-Jun-24 08:30N 29°60' W 093°55'0 0.0
2018-Jun-24 08:01N 29°60' W 093°55'0 0.0
2018-Jun-24 07:30N 29°60' W 093°55'0 0.0
2018-Jun-24 07:00N 29°60' W 093°55'0 0.0
2018-Jun-24 06:30N 29°60' W 093°55'0 0.0
2018-Jun-24 06:00N 29°60' W 093°55'0 0.0
2018-Jun-24 05:31N 29°60' W 093°55'0 0.0
2018-Jun-24 05:00N 29°60' W 093°55'0 0.0
2018-Jun-24 04:30N 29°60' W 093°55'0 0.0
2018-Jun-24 04:01N 29°60' W 093°55'0 0.0
2018-Jun-24 03:30N 29°60' W 093°55'0 0.0
2018-Jun-24 03:01N 29°60' W 093°55'0 0.0
2018-Jun-24 02:30N 29°60' W 093°55'0 0.0
2018-Jun-24 02:00N 29°60' W 093°55'0 0.0
2018-Jun-24 01:30N 29°60' W 093°55'0 0.0
2018-Jun-24 01:00N 29°60' W 093°55'0 0.0
2018-Jun-24 00:30N 29°60' W 093°55'0 0.0
2018-Jun-24 00:00N 29°60' W 093°55'0 0.0
2018-Jun-23 23:30N 29°60' W 093°55'0 0.8
2018-Jun-23 23:00N 29°59' W 093°54'3 6.2
2018-Jun-23 22:31N 29°58' W 093°51'0 0.5
2018-Jun-23 22:00N 29°58' W 093°51'0 0.1
2018-Jun-23 21:30N 29°58' W 093°51'1 2.0
2018-Jun-23 21:01N 29°58' W 093°52'0 0.0
2018-Jun-23 20:30N 29°58' W 093°52'1 1.4
2018-Jun-23 20:00N 29°58' W 093°51'3 6.1
2018-Jun-23 19:30N 29°60' W 093°55'0 0.0
2018-Jun-23 19:00N 29°60' W 093°55'0 0.0
2018-Jun-23 18:30N 29°60' W 093°55'0 0.0
2018-Jun-23 18:00N 29°60' W 093°55'0 0.0
2018-Jun-23 17:30N 29°60' W 093°55'0 0.0
2018-Jun-23 17:00N 29°60' W 093°55'0 0.0
2018-Jun-23 16:30N 29°60' W 093°55'0 0.0
2018-Jun-23 16:00N 29°60' W 093°55'1 2.8
2018-Jun-23 15:30N 29°59' W 093°53'2 4.2
2018-Jun-23 15:00N 29°58' W 093°51'1 1.3
2018-Jun-23 14:31N 29°59' W 093°52'3 6.6
2018-Jun-23 14:00N 29°59' W 093°55'1 2.9
2018-Jun-23 13:30N 29°60' W 093°57'0 0.0
2018-Jun-23 13:00N 29°60' W 093°57'0 0.0
2018-Jun-23 12:31N 29°60' W 093°57'0 0.0
2018-Jun-23 12:00N 29°60' W 093°57'0 0.0
2018-Jun-23 11:30N 29°60' W 093°57'0 0.0
2018-Jun-23 11:00N 29°60' W 093°57'0 0.0
2018-Jun-23 10:31N 29°60' W 093°57'0 0.0
2018-Jun-23 10:01N 29°60' W 093°57'0 0.0
2018-Jun-23 09:30N 29°60' W 093°57'0 0.0
2018-Jun-23 09:00N 29°60' W 093°57'0 0.0
2018-Jun-23 08:30N 29°60' W 093°57'0 0.0
2018-Jun-23 08:00N 29°60' W 093°57'0 0.0
2018-Jun-23 07:30N 29°60' W 093°57'0 0.0
2018-Jun-23 07:00N 29°60' W 093°57'0 0.0
2018-Jun-23 06:30N 29°60' W 093°57'0 0.0
2018-Jun-23 06:00N 29°60' W 093°57'0 0.0
2018-Jun-23 05:31N 29°60' W 093°57'0 0.0
2018-Jun-23 05:00N 29°60' W 093°57'0 0.0
2018-Jun-23 04:30N 29°60' W 093°57'0 0.0
2018-Jun-23 04:00N 29°60' W 093°57'0 0.0
2018-Jun-23 03:30N 29°60' W 093°57'0 0.0
2018-Jun-23 03:01N 29°60' W 093°57'0 0.0
2018-Jun-23 02:30N 29°60' W 093°57'0 0.0
2018-Jun-23 02:00N 29°60' W 093°57'0 0.0
2018-Jun-23 01:30N 29°60' W 093°57'0 0.0
2018-Jun-23 01:00N 29°60' W 093°57'0 0.0
2018-Jun-23 00:31N 29°60' W 093°57'0 0.0
2018-Jun-23 00:01N 29°60' W 093°57'0 0.0
2018-Jun-22 23:30N 29°60' W 093°57'0 0.0
2018-Jun-22 23:00N 29°60' W 093°57'0 0.0
2018-Jun-22 22:30N 29°60' W 093°57'0 0.0
2018-Jun-22 22:00N 29°60' W 093°57'0 0.0
2018-Jun-22 21:31N 29°60' W 093°57'0 0.0
2018-Jun-22 21:00N 29°60' W 093°57'0 0.0
2018-Jun-22 20:30N 29°60' W 093°57'0 0.0
2018-Jun-22 19:59N 29°60' W 093°57'  
2018-Jun-16 04:46N 29°60' W 093°57'0 0.0
2018-Jun-16 04:30N 29°60' W 093°57'  
Track history (hours):
 
Tides and Currents Weather Stations Pressure Air Temp Water Temp Dewpoint Dewpoint Depression Visibility Wind Speed Wind Dir Waves Ship Positions

Savage Integrity

Owner: Savage Inland Marine, Gibson, LA. More information available from US FCC via Universal Licensing System and Coast Guard Vessel Documentation Center.

Last reported at 2018-Jun-25 00:01 UTC. Time now 2018-Jun-25 00:13 UTC.
Position N 30°12' W 093°17'.

Length 25 m.

Type: Towing. MMSI: 367547030.

Date/timePositionNaut miles runAvg speedWind from/ knotsBaromVisibWave heightAir tempDewpointWater temp
2018-Jun-25 00:01N 30°12' W 093°17'2 4.8
2018-Jun-24 23:30N 30°14' W 093°15'1 1.8
2018-Jun-24 23:01N 30°15' W 093°14'2 3.4
2018-Jun-24 22:30N 30°15' W 093°12'2 3.5
2018-Jun-24 22:00N 30°15' W 093°14'1 1.4
2018-Jun-24 21:30N 30°14' W 093°15'1 1.1
2018-Jun-24 21:00N 30°14' W 093°15'2 4.3
2018-Jun-24 20:30N 30°12' W 093°16'4 8.4
2018-Jun-24 20:00N 30°09' W 093°20'510.3
2018-Jun-24 19:30N 30°04' W 093°21'1 1.2
2018-Jun-24 19:00N 30°04' W 093°21'0 0.4
2018-Jun-24 18:30N 30°04' W 093°21'1 2.0
2018-Jun-24 18:00N 30°04' W 093°20'0 0.5
2018-Jun-24 17:30N 30°04' W 093°21'1 2.5
2018-Jun-24 17:00N 30°04' W 093°22'3 6.1
2018-Jun-24 16:30N 30°04' W 093°25'3 6.9
2018-Jun-24 16:00N 30°04' W 093°29'3 6.4
2018-Jun-24 15:30N 30°04' W 093°33'3 6.6
2018-Jun-24 14:59N 30°04' W 093°37'3 6.9
2018-Jun-24 14:30N 30°03' W 093°41'3 6.6
2018-Jun-24 14:00N 30°02' W 093°44'3 6.5
2018-Jun-24 13:30N 29°60' W 093°47'4 7.4
2018-Jun-24 13:00N 29°58' W 093°51'3 5.6
2018-Jun-24 12:30N 29°59' W 093°54'1 1.7
2018-Jun-24 12:00N 29°60' W 093°55'0 0.0
2018-Jun-24 11:30N 29°60' W 093°55'0 0.0
2018-Jun-24 11:01N 29°60' W 093°55'0 0.0
2018-Jun-24 10:30N 29°60' W 093°55'0 0.0
2018-Jun-24 10:00N 29°60' W 093°55'0 0.0
2018-Jun-24 09:30N 29°60' W 093°55'0 0.0
2018-Jun-24 09:00N 29°60' W 093°55'0 0.0
2018-Jun-24 08:30N 29°60' W 093°55'0 0.0
2018-Jun-24 08:01N 29°60' W 093°55'0 0.0
2018-Jun-24 07:30N 29°60' W 093°55'0 0.0
2018-Jun-24 07:00N 29°60' W 093°55'0 0.0
2018-Jun-24 06:30N 29°60' W 093°55'0 0.0
2018-Jun-24 06:00N 29°60' W 093°55'0 0.0
2018-Jun-24 05:31N 29°60' W 093°55'0 0.0
2018-Jun-24 05:00N 29°60' W 093°55'0 0.0
2018-Jun-24 04:30N 29°60' W 093°55'0 0.0
2018-Jun-24 04:01N 29°60' W 093°55'0 0.0
2018-Jun-24 03:30N 29°60' W 093°55'0 0.0
2018-Jun-24 03:01N 29°60' W 093°55'0 0.0
2018-Jun-24 02:30N 29°60' W 093°55'0 0.0
2018-Jun-24 02:00N 29°60' W 093°55'0 0.0
2018-Jun-24 01:30N 29°60' W 093°55'0 0.0
2018-Jun-24 01:00N 29°60' W 093°55'0 0.0
2018-Jun-24 00:30N 29°60' W 093°55'0 0.0
2018-Jun-24 00:00N 29°60' W 093°55'0 0.0
2018-Jun-23 23:30N 29°60' W 093°55'0 0.8
2018-Jun-23 23:00N 29°59' W 093°54'3 6.2
2018-Jun-23 22:31N 29°58' W 093°51'0 0.5
2018-Jun-23 22:00N 29°58' W 093°51'0 0.1
2018-Jun-23 21:30N 29°58' W 093°51'1 2.0
2018-Jun-23 21:01N 29°58' W 093°52'0 0.0
2018-Jun-23 20:30N 29°58' W 093°52'1 1.4
2018-Jun-23 20:00N 29°58' W 093°51'3 6.1
2018-Jun-23 19:30N 29°60' W 093°55'0 0.0
2018-Jun-23 19:00N 29°60' W 093°55'0 0.0
2018-Jun-23 18:30N 29°60' W 093°55'0 0.0
2018-Jun-23 18:00N 29°60' W 093°55'0 0.0
2018-Jun-23 17:30N 29°60' W 093°55'0 0.0
2018-Jun-23 17:00N 29°60' W 093°55'0 0.0
2018-Jun-23 16:30N 29°60' W 093°55'0 0.0
2018-Jun-23 16:00N 29°60' W 093°55'1 2.8
2018-Jun-23 15:30N 29°59' W 093°53'2 4.2
2018-Jun-23 15:00N 29°58' W 093°51'1 1.3
2018-Jun-23 14:31N 29°59' W 093°52'3 6.6
2018-Jun-23 14:00N 29°59' W 093°55'1 2.9
2018-Jun-23 13:30N 29°60' W 093°57'0 0.0
2018-Jun-23 13:00N 29°60' W 093°57'0 0.0
2018-Jun-23 12:31N 29°60' W 093°57'0 0.0
2018-Jun-23 12:00N 29°60' W 093°57'0 0.0
2018-Jun-23 11:30N 29°60' W 093°57'0 0.0
2018-Jun-23 11:00N 29°60' W 093°57'0 0.0
2018-Jun-23 10:31N 29°60' W 093°57'0 0.0
2018-Jun-23 10:01N 29°60' W 093°57'0 0.0
2018-Jun-23 09:30N 29°60' W 093°57'0 0.0
2018-Jun-23 09:00N 29°60' W 093°57'0 0.0
2018-Jun-23 08:30N 29°60' W 093°57'0 0.0
2018-Jun-23 08:00N 29°60' W 093°57'0 0.0
2018-Jun-23 07:30N 29°60' W 093°57'0 0.0
2018-Jun-23 07:00N 29°60' W 093°57'0 0.0
2018-Jun-23 06:30N 29°60' W 093°57'0 0.0
2018-Jun-23 06:00N 29°60' W 093°57'0 0.0
2018-Jun-23 05:31N 29°60' W 093°57'0 0.0
2018-Jun-23 05:00N 29°60' W 093°57'0 0.0
2018-Jun-23 04:30N 29°60' W 093°57'0 0.0
2018-Jun-23 04:00N 29°60' W 093°57'0 0.0
2018-Jun-23 03:30N 29°60' W 093°57'0 0.0
2018-Jun-23 03:01N 29°60' W 093°57'0 0.0
2018-Jun-23 02:30N 29°60' W 093°57'0 0.0
2018-Jun-23 02:00N 29°60' W 093°57'0 0.0
2018-Jun-23 01:30N 29°60' W 093°57'0 0.0
2018-Jun-23 01:00N 29°60' W 093°57'0 0.0
2018-Jun-23 00:31N 29°60' W 093°57'0 0.0
2018-Jun-23 00:01N 29°60' W 093°57'0 0.0
2018-Jun-22 23:30N 29°60' W 093°57'0 0.0
2018-Jun-22 23:00N 29°60' W 093°57'0 0.0
2018-Jun-22 22:30N 29°60' W 093°57'0 0.0
2018-Jun-22 22:00N 29°60' W 093°57'0 0.0
2018-Jun-22 21:31N 29°60' W 093°57'0 0.0
2018-Jun-22 21:00N 29°60' W 093°57'0 0.0
2018-Jun-22 20:30N 29°60' W 093°57'0 0.0
2018-Jun-22 19:59N 29°60' W 093°57'  
2018-Jun-16 04:46N 29°60' W 093°57'0 0.0
2018-Jun-16 04:30N 29°60' W 093°57'  

Dump ship's entire track history